createdAt,value
2023-02-01T00:02:23.683Z,9.05
2023-02-01T00:04:50.193Z,9.25
2023-02-01T00:07:16.679Z,8.38
2023-02-01T00:09:43.270Z,9.68
2023-02-01T00:12:09.759Z,8.70
2023-02-01T00:14:39.301Z,8.75
2023-02-01T00:17:08.624Z,9.10
2023-02-01T00:22:02.025Z,10.45
2023-02-01T00:24:28.764Z,10.13
2023-02-01T00:26:55.266Z,9.52
2023-02-01T00:29:22.174Z,10.02
2023-02-01T00:31:51.491Z,10.02
2023-02-01T00:36:45.402Z,10.40
2023-02-01T00:39:12.859Z,9.55
2023-02-01T00:41:39.512Z,9.38
2023-02-01T00:44:06.093Z,8.93
2023-02-01T00:46:32.983Z,8.77
2023-02-01T00:48:59.506Z,8.70
2023-02-01T00:51:29.138Z,8.15
2023-02-01T00:53:56.152Z,8.27
2023-02-01T00:56:22.948Z,7.25
2023-02-01T00:58:49.656Z,7.95
2023-02-01T01:01:22.286Z,6.55
2023-02-01T01:03:54.785Z,5.88
2023-02-01T01:06:23.593Z,5.88
2023-02-01T01:08:53.124Z,5.85
2023-02-01T01:11:22.345Z,5.05
2023-02-01T01:13:50.694Z,5.55
2023-02-01T01:16:18.620Z,4.40
2023-02-01T01:18:46.039Z,5.57
2023-02-01T01:21:14.369Z,4.80
2023-02-01T01:23:41.166Z,5.20
2023-02-01T01:26:09.636Z,5.43
2023-02-01T01:28:36.132Z,4.88
2023-02-01T01:31:03.397Z,4.28
2023-02-01T01:33:29.916Z,5.30
2023-02-01T01:35:56.474Z,4.43
2023-02-01T01:38:23.267Z,5.50
2023-02-01T01:40:52.795Z,4.93
2023-02-01T01:43:23.391Z,4.70
2023-02-01T01:45:51.575Z,4.13
2023-02-01T01:48:30.205Z,4.85
2023-02-01T01:51:03.825Z,3.42
2023-02-01T01:53:42.738Z,4.32
2023-02-01T01:56:09.252Z,4.95
2023-02-01T01:58:35.784Z,4.85
2023-02-01T02:01:02.266Z,4.60
2023-02-01T02:03:35.933Z,4.03
2023-02-01T02:06:06.403Z,4.30
2023-02-01T02:08:33.163Z,4.90
2023-02-01T02:11:02.483Z,5.00
2023-02-01T02:13:39.776Z,5.15
2023-02-01T02:16:31.881Z,4.72
2023-02-01T02:19:36.272Z,6.45
2023-02-01T02:22:27.276Z,6.55
2023-02-01T02:25:18.245Z,6.60
2023-02-01T02:28:15.682Z,6.47
2023-02-01T02:31:07.858Z,7.50
2023-02-01T02:34:07.493Z,7.32
2023-02-01T02:37:01.604Z,6.78
2023-02-01T02:39:51.330Z,6.78
2023-02-01T02:42:56.960Z,6.90
2023-02-01T02:45:52.272Z,6.63
2023-02-01T02:48:26.146Z,6.50
2023-02-01T02:51:38.398Z,6.28
2023-02-01T02:54:37.565Z,5.93
2023-02-01T02:57:27.227Z,6.30
2023-02-01T03:00:13.060Z,5.78
2023-02-01T03:02:59.126Z,5.88
2023-02-01T03:05:26.431Z,6.40
2023-02-01T03:08:10.955Z,6.32
2023-02-01T03:10:43.127Z,5.90
2023-02-01T03:13:20.970Z,5.97
2023-02-01T03:16:37.448Z,7.70
2023-02-01T03:19:26.626Z,5.90
2023-02-01T03:22:04.701Z,6.65
2023-02-01T03:24:36.119Z,5.82
2023-02-01T03:27:25.343Z,6.10
2023-02-01T03:30:10.602Z,6.68
2023-02-01T03:32:59.621Z,5.68
2023-02-01T03:35:45.147Z,6.20
2023-02-01T03:38:35.796Z,6.15
2023-02-01T03:41:22.889Z,6.03
2023-02-01T03:44:21.281Z,5.60
2023-02-01T03:47:01.041Z,6.10
2023-02-01T03:49:35.777Z,5.38
2023-02-01T03:52:04.495Z,6.47
2023-02-01T03:54:32.529Z,6.15
2023-02-01T03:57:03.914Z,6.05
2023-02-01T03:59:31.098Z,6.28
2023-02-01T04:01:57.528Z,7.03
2023-02-01T04:04:24.081Z,6.75
2023-02-01T04:06:51.292Z,6.18
2023-02-01T04:09:18.046Z,5.80
2023-02-01T04:11:44.820Z,5.85
2023-02-01T04:14:11.349Z,5.97
2023-02-01T04:16:37.855Z,6.20
2023-02-01T04:19:04.404Z,6.10
2023-02-01T04:21:30.883Z,7.07
2023-02-01T04:23:57.417Z,6.38
2023-02-01T04:26:24.186Z,5.93
2023-02-01T04:28:51.762Z,6.05
2023-02-01T04:31:18.874Z,7.03
2023-02-01T04:33:45.385Z,6.10
2023-02-01T04:36:11.967Z,5.80
2023-02-01T04:38:38.562Z,5.80
2023-02-01T04:41:05.164Z,6.82
2023-02-01T04:43:31.677Z,6.38
2023-02-01T04:45:58.254Z,6.70
2023-02-01T04:48:25.128Z,5.80
2023-02-01T04:50:52.142Z,6.30
2023-02-01T04:53:18.915Z,5.63
2023-02-01T04:55:45.932Z,6.28
2023-02-01T04:58:12.416Z,6.22
2023-02-01T05:00:38.948Z,5.30
2023-02-01T05:03:06.126Z,5.50
2023-02-01T05:05:32.640Z,5.35
2023-02-01T05:07:59.196Z,5.63
2023-02-01T05:10:25.827Z,5.88
2023-02-01T05:13:10.748Z,5.88
2023-02-01T05:15:37.400Z,5.55
2023-02-01T05:18:04.055Z,5.18
2023-02-01T05:20:30.605Z,4.82
2023-02-01T05:22:57.363Z,5.15
2023-02-01T05:25:23.883Z,5.88
2023-02-01T05:27:50.294Z,4.85
2023-02-01T05:30:17.084Z,5.07
2023-02-01T05:32:43.545Z,4.88
2023-02-01T05:35:10.188Z,4.72
2023-02-01T05:37:36.848Z,4.93
2023-02-01T05:40:04.095Z,4.65
2023-02-01T05:42:30.514Z,4.88
2023-02-01T05:44:57.242Z,4.72
2023-02-01T05:47:23.718Z,5.50
2023-02-01T05:49:50.234Z,4.65
2023-02-01T05:52:20.285Z,4.28
2023-02-01T05:54:48.058Z,5.15
2023-02-01T05:57:15.683Z,4.50
2023-02-01T05:59:42.435Z,4.35
2023-02-01T06:02:10.937Z,4.30
2023-02-01T06:04:37.318Z,4.27
2023-02-01T06:07:03.914Z,3.85
2023-02-01T06:09:30.456Z,4.68
2023-02-01T06:11:56.983Z,5.35
2023-02-01T06:14:23.479Z,4.55
2023-02-01T06:16:49.990Z,4.20
2023-02-01T06:19:16.665Z,4.00
2023-02-01T06:21:43.121Z,4.32
2023-02-01T06:24:09.626Z,4.10
2023-02-01T06:26:37.017Z,3.88
2023-02-01T06:29:03.560Z,5.10
2023-02-01T06:31:30.181Z,4.82
2023-02-01T06:33:56.715Z,4.20
2023-02-01T06:36:23.165Z,4.45
2023-02-01T06:38:49.771Z,4.90
2023-02-01T06:41:17.267Z,4.78
2023-02-01T06:43:44.522Z,4.35
2023-02-01T06:46:13.668Z,4.28
2023-02-01T06:48:40.532Z,4.18
2023-02-01T06:51:07.647Z,5.63
2023-02-01T06:53:34.986Z,4.85
2023-02-01T06:56:03.758Z,5.07
2023-02-01T06:58:32.299Z,4.65
2023-02-01T07:00:59.795Z,3.97
2023-02-01T07:03:26.278Z,5.20
2023-02-01T07:05:57.422Z,5.05
2023-02-01T07:08:23.920Z,4.57
2023-02-01T07:10:50.439Z,4.80
2023-02-01T07:13:16.940Z,4.82
2023-02-01T07:15:43.362Z,4.65
2023-02-01T07:18:09.904Z,4.32
2023-02-01T07:20:36.397Z,4.20
2023-02-01T07:23:02.829Z,4.60
2023-02-01T07:25:29.269Z,5.20
2023-02-01T07:27:55.744Z,4.85
2023-02-01T07:30:22.625Z,4.15
2023-02-01T07:32:49.283Z,4.70
2023-02-01T07:35:15.868Z,4.40
2023-02-01T07:37:42.426Z,4.57
2023-02-01T07:40:09.848Z,4.35
2023-02-01T07:42:36.402Z,4.93
2023-02-01T07:45:19.857Z,5.00
2023-02-01T07:47:47.593Z,4.35
2023-02-01T07:50:14.148Z,4.43
2023-02-01T07:52:41.632Z,4.50
2023-02-01T07:55:08.575Z,4.15
2023-02-01T07:57:35.097Z,4.68
2023-02-01T08:00:20.345Z,5.25
2023-02-01T08:02:46.920Z,4.07
2023-02-01T08:05:13.412Z,4.10
2023-02-01T08:07:39.913Z,4.65
2023-02-01T08:10:11.504Z,4.55
2023-02-01T08:12:38.520Z,4.53
2023-02-01T08:15:05.522Z,5.20
2023-02-01T08:17:31.929Z,5.30
2023-02-01T08:19:58.465Z,5.00
2023-02-01T08:22:25.027Z,5.18
2023-02-01T08:24:52.544Z,5.55
2023-02-01T08:27:19.211Z,4.95
2023-02-01T08:29:45.696Z,4.40
2023-02-01T08:32:12.302Z,4.85
2023-02-01T08:34:38.755Z,5.03
2023-02-01T08:37:05.197Z,5.00
2023-02-01T08:39:31.625Z,5.18
2023-02-01T08:42:16.373Z,4.03
2023-02-01T08:44:43.147Z,4.72
2023-02-01T08:47:09.656Z,5.22
2023-02-01T08:49:36.217Z,5.55
2023-02-01T08:52:07.304Z,4.07
2023-02-01T08:54:37.220Z,5.13
2023-02-01T08:57:04.969Z,4.65
2023-02-01T08:59:31.427Z,4.13
2023-02-01T09:01:58.096Z,4.20
2023-02-01T09:04:24.707Z,4.53
2023-02-01T09:06:51.205Z,5.47
2023-02-01T09:09:17.856Z,3.97
2023-02-01T09:11:44.515Z,4.38
2023-02-01T09:14:11.027Z,3.90
2023-02-01T09:16:37.471Z,4.70
2023-02-01T09:19:27.651Z,4.68
2023-02-01T09:21:50.515Z,4.30
2023-02-01T09:24:17.028Z,5.22
2023-02-01T09:26:43.569Z,5.25
2023-02-01T09:29:12.741Z,3.83
2023-02-01T09:31:44.155Z,4.68
2023-02-01T09:34:16.461Z,4.28
2023-02-01T09:36:43.152Z,4.65
2023-02-01T09:39:09.697Z,4.97
2023-02-01T09:41:57.481Z,4.97
2023-02-01T09:44:45.680Z,5.00
2023-02-01T09:47:15.727Z,4.82
2023-02-01T09:50:22.578Z,5.55
2023-02-01T09:52:57.109Z,4.40
2023-02-01T09:55:39.115Z,4.65
2023-02-01T09:58:12.285Z,4.32
2023-02-01T10:00:40.261Z,5.22
2023-02-01T10:03:12.353Z,4.45
2023-02-01T10:05:44.515Z,4.53
2023-02-01T10:08:40.071Z,4.50
2023-02-01T10:11:49.504Z,4.65
2023-02-01T10:14:26.477Z,4.63
2023-02-01T10:16:59.863Z,4.63
2023-02-01T10:19:44.893Z,5.00
2023-02-01T10:22:48.336Z,4.13
2023-02-01T10:25:42.873Z,4.15
2023-02-01T10:28:15.891Z,3.67
2023-02-01T10:30:48.159Z,3.97
2023-02-01T10:33:19.376Z,4.22
2023-02-01T10:35:47.210Z,3.58
2023-02-01T10:38:27.917Z,4.38
2023-02-01T10:40:58.076Z,3.50
2023-02-01T10:43:24.669Z,4.95
2023-02-01T10:45:51.111Z,3.40
2023-02-01T10:48:17.933Z,4.53
2023-02-01T10:51:01.867Z,3.70
2023-02-01T10:53:46.985Z,4.75
2023-02-01T10:56:14.417Z,4.20
2023-02-01T10:58:47.066Z,4.60
2023-02-01T11:01:29.007Z,3.92
2023-02-01T11:04:00.998Z,3.95
2023-02-01T11:06:27.452Z,4.53
2023-02-01T11:09:00.533Z,5.20
2023-02-01T11:11:27.323Z,3.80
2023-02-01T11:13:59.633Z,3.80
2023-02-01T11:16:36.828Z,4.28
2023-02-01T11:19:03.989Z,4.20
2023-02-01T11:21:30.831Z,4.60
2023-02-01T11:24:02.589Z,4.70
2023-02-01T11:26:29.543Z,4.45
2023-02-01T11:29:04.947Z,4.55
2023-02-01T11:31:34.855Z,4.35
2023-02-01T11:34:16.663Z,3.85
2023-02-01T11:36:46.161Z,5.03
2023-02-01T11:39:15.628Z,3.72
2023-02-01T11:44:27.317Z,4.80
2023-02-01T11:46:53.925Z,4.53
2023-02-01T11:49:28.437Z,4.80
2023-02-01T11:52:16.154Z,3.72
2023-02-01T11:54:57.708Z,4.55
2023-02-01T11:57:53.775Z,4.20
2023-02-01T12:00:38.947Z,4.55
2023-02-01T12:03:23.815Z,3.80
2023-02-01T12:06:20.654Z,3.78
2023-02-01T12:09:21.177Z,4.43
2023-02-01T12:12:09.950Z,4.55
2023-02-01T12:14:54.676Z,3.53
2023-02-01T12:17:24.133Z,4.15
2023-02-01T12:23:06.721Z,5.10
2023-02-01T12:26:03.709Z,3.70
2023-02-01T12:28:54.904Z,4.28
2023-02-01T12:31:30.372Z,3.78
2023-02-01T12:34:24.113Z,4.03
2023-02-01T12:37:14.926Z,3.90
2023-02-01T12:39:55.377Z,3.58
2023-02-01T12:42:32.588Z,3.47
2023-02-01T12:45:17.092Z,5.28
2023-02-01T12:47:53.535Z,3.60
2023-02-01T12:50:29.419Z,3.63
2023-02-01T12:53:08.755Z,4.40
2023-02-01T12:58:25.241Z,3.37
2023-02-01T13:01:00.485Z,4.00
2023-02-01T13:03:54.210Z,4.18
2023-02-01T13:06:27.243Z,4.07
2023-02-01T13:08:58.846Z,4.05
2023-02-01T13:11:34.092Z,3.65
2023-02-01T13:14:14.512Z,4.15
2023-02-01T13:16:51.070Z,3.67
2023-02-01T13:19:27.314Z,3.95
2023-02-01T13:22:16.625Z,3.55
2023-02-01T13:25:00.678Z,3.60
2023-02-01T13:27:31.334Z,4.30
2023-02-01T13:30:02.131Z,4.32
2023-02-01T13:32:54.828Z,4.45
2023-02-01T13:35:46.324Z,4.80
2023-02-01T13:38:12.908Z,4.80
2023-02-01T13:40:45.698Z,3.83
2023-02-01T13:43:24.416Z,4.82
2023-02-01T13:45:55.759Z,4.20
2023-02-01T13:48:35.795Z,4.63
2023-02-01T13:51:03.254Z,3.72
2023-02-01T13:53:37.850Z,3.88
2023-02-01T13:56:19.452Z,4.30
2023-02-01T13:58:48.757Z,4.78
2023-02-01T14:01:22.075Z,4.47
2023-02-01T14:03:52.807Z,3.65
2023-02-01T14:06:28.392Z,4.15
2023-02-01T14:09:11.921Z,3.85
2023-02-01T14:11:58.053Z,3.53
2023-02-01T14:14:25.342Z,3.95
2023-02-01T14:16:54.827Z,3.30
2023-02-01T14:21:59.763Z,3.70
2023-02-01T14:24:31.705Z,2.92
2023-02-01T14:27:01.124Z,3.63
2023-02-01T14:29:37.940Z,2.70
2023-02-01T14:32:23.556Z,3.47
2023-02-01T14:34:55.472Z,2.83
2023-02-01T14:37:22.763Z,3.20
2023-02-01T14:40:02.257Z,4.25
2023-02-01T14:42:46.249Z,3.72
2023-02-01T14:45:25.936Z,3.60
2023-02-01T14:48:15.732Z,2.90
2023-02-01T14:53:22.914Z,3.75
2023-02-01T14:56:15.271Z,3.63
2023-02-01T14:58:46.241Z,3.33
2023-02-01T15:01:32.055Z,3.28
2023-02-01T15:04:19.536Z,3.83
2023-02-01T15:06:58.280Z,3.65
2023-02-01T15:09:35.656Z,3.15
2023-02-01T15:12:18.371Z,3.95
2023-02-01T15:15:09.547Z,3.20
2023-02-01T15:17:36.092Z,2.90
2023-02-01T15:20:13.848Z,4.10
2023-02-01T15:22:40.513Z,3.13
2023-02-01T15:25:19.093Z,3.35
2023-02-01T15:27:45.705Z,3.45
2023-02-01T15:30:21.240Z,3.38
2023-02-01T15:32:48.925Z,3.15
2023-02-01T15:35:39.672Z,3.50
2023-02-01T15:38:24.409Z,2.78
2023-02-01T15:40:59.491Z,3.20
2023-02-01T15:43:28.148Z,3.05
2023-02-01T15:46:03.688Z,2.90
2023-02-01T15:48:38.900Z,3.40
2023-02-01T15:51:06.179Z,3.22
2023-02-01T15:53:33.749Z,3.65
2023-02-01T15:56:03.992Z,2.83
2023-02-01T15:58:32.582Z,3.05
2023-02-01T16:01:03.146Z,2.97
2023-02-01T16:03:45.084Z,3.00
2023-02-01T16:06:34.999Z,3.10
2023-02-01T16:09:14.073Z,3.38
2023-02-01T16:11:47.751Z,2.92
2023-02-01T16:14:14.328Z,3.05
2023-02-01T16:16:40.826Z,3.10
2023-02-01T16:19:07.431Z,3.88
2023-02-01T16:21:33.879Z,3.20
2023-02-01T16:24:04.595Z,3.47
2023-02-01T16:26:35.205Z,2.92
2023-02-01T16:29:06.925Z,3.83
2023-02-01T16:31:40.698Z,3.40
2023-02-01T16:34:14.203Z,3.25
2023-02-01T16:36:41.687Z,3.60
2023-02-01T16:39:12.154Z,3.30
2023-02-01T16:41:40.316Z,3.85
2023-02-01T16:44:07.849Z,3.55
2023-02-01T16:46:40.240Z,3.30
2023-02-01T16:49:06.883Z,3.88
2023-02-01T16:51:33.963Z,3.53
2023-02-01T16:54:01.657Z,4.03
2023-02-01T16:56:34.112Z,3.78
2023-02-01T16:59:00.930Z,4.22
2023-02-01T17:01:27.470Z,4.15
2023-02-01T17:03:54.257Z,3.92
2023-02-01T17:06:23.839Z,3.50
2023-02-01T17:08:55.599Z,3.63
2023-02-01T17:11:22.318Z,4.03
2023-02-01T17:13:48.895Z,3.90
2023-02-01T17:16:18.299Z,3.35
2023-02-01T17:21:11.689Z,3.63
2023-02-01T17:23:38.673Z,4.22
2023-02-01T17:26:05.453Z,3.88
2023-02-01T17:28:32.768Z,3.58
2023-02-01T17:30:59.259Z,4.35
2023-02-01T17:33:35.797Z,3.78
2023-02-01T17:36:06.213Z,3.72
2023-02-01T17:38:34.542Z,3.40
2023-02-01T17:41:01.432Z,4.75
2023-02-01T17:43:28.025Z,4.30
2023-02-01T17:46:25.911Z,3.95
2023-02-01T17:48:55.926Z,3.65
2023-02-01T17:51:27.785Z,3.35
2023-02-01T17:53:55.115Z,3.55
2023-02-01T17:56:24.362Z,4.60
2023-02-01T17:58:51.544Z,3.33
2023-02-01T18:01:23.380Z,4.07
2023-02-01T18:03:50.857Z,3.67
2023-02-01T18:06:28.350Z,3.90
2023-02-01T18:08:54.832Z,3.95
2023-02-01T18:11:23.694Z,4.05
2023-02-01T18:13:52.934Z,4.07
2023-02-01T18:16:31.933Z,3.90
2023-02-01T18:19:01.730Z,3.85
2023-02-01T18:21:40.392Z,4.35
2023-02-01T18:24:07.203Z,4.03
2023-02-01T18:26:33.799Z,3.55
2023-02-01T18:29:00.239Z,3.75
2023-02-01T18:31:30.124Z,4.03
2023-02-01T18:33:58.306Z,4.25
2023-02-01T18:36:25.503Z,3.47
2023-02-01T18:38:56.141Z,3.95
2023-02-01T18:41:23.204Z,4.22
2023-02-01T18:43:51.205Z,4.07
2023-02-01T18:46:18.242Z,3.90
2023-02-01T18:48:45.348Z,5.22
2023-02-01T18:51:13.681Z,5.20
2023-02-01T18:53:40.313Z,4.57
2023-02-01T18:56:07.181Z,3.40
2023-02-01T18:58:33.670Z,4.05
2023-02-01T19:01:09.344Z,4.43
2023-02-01T19:03:45.484Z,4.32
2023-02-01T19:06:15.021Z,4.82
2023-02-01T19:08:42.133Z,3.90
2023-02-01T19:11:10.053Z,4.53
2023-02-01T19:13:39.396Z,4.20
2023-02-01T19:16:10.782Z,4.50
2023-02-01T19:18:38.072Z,4.32
2023-02-01T19:21:09.918Z,5.10
2023-02-01T19:23:39.285Z,4.97
2023-02-01T19:26:11.255Z,4.38
2023-02-01T19:28:37.666Z,4.15
2023-02-01T19:31:06.075Z,4.45
2023-02-01T19:33:33.334Z,4.13
2023-02-01T19:36:05.160Z,4.43
2023-02-01T19:38:33.154Z,4.07
2023-02-01T19:40:59.670Z,5.05
2023-02-01T19:43:26.266Z,3.95
2023-02-01T19:45:53.676Z,4.22
2023-02-01T19:48:20.176Z,4.18
2023-02-01T19:50:47.043Z,3.70
2023-02-01T19:53:13.535Z,4.97
2023-02-01T19:55:45.546Z,4.30
2023-02-01T19:58:12.123Z,3.72
2023-02-01T20:00:37.767Z,4.22
2023-02-01T20:03:04.550Z,4.57
2023-02-01T20:05:31.111Z,4.43
2023-02-01T20:07:57.645Z,4.53
2023-02-01T20:10:24.299Z,4.93
2023-02-01T20:12:50.811Z,4.07
2023-02-01T20:15:17.391Z,4.05
2023-02-01T20:17:44.627Z,3.78
2023-02-01T20:20:11.389Z,4.15
2023-02-01T20:22:37.881Z,4.38
2023-02-01T20:25:04.967Z,3.65
2023-02-01T20:27:32.303Z,4.75
2023-02-01T20:29:59.114Z,4.10
2023-02-01T20:32:25.765Z,4.45
2023-02-01T20:34:53.538Z,3.65
2023-02-01T20:37:21.190Z,4.13
2023-02-01T20:39:47.888Z,4.15
2023-02-01T20:42:14.418Z,4.00
2023-02-01T20:44:40.883Z,4.47
2023-02-01T20:47:07.306Z,3.92
2023-02-01T20:49:34.748Z,4.30
2023-02-01T20:52:01.344Z,4.43
2023-02-01T20:54:27.852Z,4.00
2023-02-01T20:56:54.518Z,4.60
2023-02-01T20:59:20.967Z,4.32
2023-02-01T21:01:53.771Z,4.78
2023-02-01T21:04:22.434Z,3.95
2023-02-01T21:06:49.506Z,6.07
2023-02-01T21:09:16.781Z,5.32
2023-02-01T21:11:44.181Z,4.88
2023-02-01T21:14:11.040Z,5.35
2023-02-01T21:16:37.700Z,4.40
2023-02-01T21:19:04.521Z,4.57
2023-02-01T21:21:31.385Z,3.90
2023-02-01T21:23:59.283Z,4.82
2023-02-01T21:26:27.251Z,4.47
2023-02-01T21:28:55.527Z,4.28
2023-02-01T21:31:25.457Z,4.82
2023-02-01T21:33:52.338Z,5.43
2023-02-01T21:36:19.451Z,5.15
2023-02-01T21:38:51.873Z,5.18
2023-02-01T21:41:39.166Z,4.40
2023-02-01T21:44:05.959Z,4.95
2023-02-01T21:46:33.092Z,5.30
2023-02-01T21:49:05.859Z,4.55
2023-02-01T21:51:35.524Z,5.88
2023-02-01T21:54:03.888Z,5.05
2023-02-01T21:56:30.514Z,5.80
2023-02-01T21:58:57.091Z,5.32
2023-02-01T22:01:24.918Z,5.70
2023-02-01T22:03:51.633Z,5.78
2023-02-01T22:06:28.314Z,5.55
2023-02-01T22:08:55.206Z,6.03
2023-02-01T22:11:22.125Z,5.63
2023-02-01T22:13:48.858Z,6.32
2023-02-01T22:16:17.943Z,6.88
2023-02-01T22:18:45.562Z,5.85
2023-02-01T22:21:12.024Z,5.93
2023-02-01T22:23:38.687Z,5.00
2023-02-01T22:26:09.025Z,6.05
2023-02-01T22:28:37.064Z,5.55
2023-02-01T22:31:07.118Z,5.57
2023-02-01T22:33:34.864Z,6.15
2023-02-01T22:36:04.091Z,6.13
2023-02-01T22:38:35.426Z,5.47
2023-02-01T22:41:05.781Z,6.20
2023-02-01T22:43:33.150Z,5.53
2023-02-01T22:46:08.783Z,6.22
2023-02-01T22:48:37.198Z,5.85
2023-02-01T22:51:05.041Z,5.47
2023-02-01T22:53:32.401Z,4.97
2023-02-01T22:56:06.191Z,5.80
2023-02-01T22:58:35.770Z,6.28
2023-02-01T23:01:07.968Z,5.28
2023-02-01T23:03:36.096Z,5.68
2023-02-01T23:06:03.823Z,5.82
2023-02-01T23:08:30.352Z,6.90
2023-02-01T23:11:05.060Z,6.22
2023-02-01T23:13:33.079Z,5.57
2023-02-01T23:16:03.615Z,6.43
2023-02-01T23:18:30.127Z,5.78
2023-02-01T23:20:56.632Z,5.80
2023-02-01T23:23:23.166Z,5.43
2023-02-01T23:25:51.231Z,5.47
2023-02-01T23:28:17.709Z,6.18
2023-02-01T23:30:44.293Z,5.55
2023-02-01T23:33:10.751Z,6.65
2023-02-01T23:35:37.214Z,5.93
2023-02-01T23:38:03.831Z,6.47
2023-02-01T23:40:31.885Z,5.88
2023-02-01T23:43:16.647Z,6.22
2023-02-01T23:45:43.312Z,5.25
2023-02-01T23:48:09.855Z,6.05
2023-02-01T23:50:36.549Z,5.80
2023-02-01T23:53:03.034Z,5.50
2023-02-01T23:55:29.733Z,5.80
2023-02-01T23:57:56.195Z,6.05
